EDT,Max TemperatureF,Mean TemperatureF,Min TemperatureF,Max Dew PointF,MeanDew PointF,Min DewpointF,Max Humidity, Mean Humidity, Min Humidity, Max Sea Level PressureIn, Mean Sea Level PressureIn, Min Sea Level PressureIn, Max VisibilityMiles, Mean VisibilityMiles, Min VisibilityMiles, Max Wind SpeedMPH, Mean Wind SpeedMPH, Max Gust SpeedMPH,PrecipitationIn, CloudCover, Events, WindDirDegrees
2013-8-1,82,71,60,70,64,58,100,73,45,30.03,29.99,29.96,10,8,3,12,2,16,0.00,3,Rain,331
2013-8-2,79,68,56,67,62,55,100,79,58,30.01,29.98,29.94,10,10,6,12,4,17,0.00,2,,213
2013-8-3,83,74,65,70,66,61,90,73,55,30.06,29.98,29.94,10,10,10,13,5,15,T,5,,306
2013-8-4,79,67,54,62,55,50,100,70,39,30.15,30.12,30.07,10,10,10,12,3,16,0.00,0,,30
2013-8-5,80,67,53,65,57,52,100,73,45,30.11,30.04,29.93,10,9,2,12,4,16,0.00,2,,171
2013-8-6,81,75,68,72,68,62,100,87,74,29.95,29.92,29.89,10,9,4,8,3,12,0.00,6,,176
2013-8-7,83,76,68,73,71,68,100,87,74,29.94,29.90,29.86,10,5,0,9,3,14,0.00,6,Fog,199
2013-8-8,86,77,68,73,71,66,100,81,61,29.95,29.91,29.87,10,8,2,10,3,15,0.25,5,Rain,251
2013-8-9,85,78,70,72,70,65,100,78,55,30.02,29.96,29.90,10,5,0,8,3,13,0.00,5,Fog,4
2013-8-10,85,77,69,70,65,59,97,72,46,30.10,30.06,30.03,10,10,10,8,2,10,0.00,3,,354
2013-8-11,83,73,62,68,64,60,100,74,47,30.11,30.08,30.05,10,9,2,10,2,16,0.00,1,,282
2013-8-12,84,72,59,72,66,58,100,81,62,30.09,29.99,29.89,10,9,6,10,2,13,T,2,Rain,241
2013-8-13,77,65,53,68,62,48,97,77,57,30.09,29.96,29.87,10,10,4,17,7,23,0.00,3,,350
2013-8-14,73,62,50,53,48,46,93,67,41,30.18,30.14,30.10,10,10,10,14,6,20,0.00,0,,13
2013-8-15,72,59,45,57,50,45,100,75,49,30.17,30.14,30.09,10,10,10,9,3,,0.00,1,,55
2013-8-16,77,64,50,56,53,49,100,72,43,30.15,30.13,30.10,10,10,9,13,4,17,0.00,1,,55
2013-8-17,81,68,54,62,56,52,97,70,42,30.19,30.14,30.11,10,10,8,12,2,15,0.00,0,,53
2013-8-18,83,70,56,64,58,54,100,70,40,30.18,30.13,30.09,10,9,2,10,2,15,0.00,1,,106
2013-8-19,86,71,55,66,58,53,100,70,40,30.15,30.11,30.06,10,7,1,9,1,16,0.00,0,,176
2013-8-20,87,73,59,70,61,57,100,72,43,30.14,30.10,30.06,10,6,0,23,2,30,0.01,1,Fog-Rain-Thunderstorm,146
2013-8-21,88,75,61,71,65,61,100,73,46,30.18,30.13,30.08,10,5,0,9,1,14,0.00,1,Fog,181
2013-8-22,88,76,63,71,67,62,100,78,55,30.13,30.09,30.04,10,8,2,16,3,22,T,1,,307
2013-8-23,87,75,63,67,64,60,93,68,42,30.13,30.09,30.05,10,10,7,12,4,18,0.00,3,,35
2013-8-24,88,73,57,63,59,56,100,69,37,30.25,30.21,30.14,10,10,6,9,2,15,0.00,0,,138
2013-8-25,88,72,55,65,58,52,100,65,29,30.32,30.26,30.22,10,10,8,9,2,13,0.00,0,,163
2013-8-26,89,76,62,72,68,60,97,74,50,30.25,30.18,30.09,10,9,4,10,4,17,0.00,0,,243
2013-8-27,89,81,72,73,71,70,93,74,55,30.10,30.04,29.99,10,8,4,12,5,15,0.00,1,,245
2013-8-28,94,84,73,73,70,66,94,68,41,29.99,29.96,29.93,10,10,8,16,7,23,0.00,0,,266
2013-8-29,91,79,67,74,70,64,94,69,44,30.06,30.01,29.97,10,8,2,9,4,13,0.00,5,,44
2013-8-30,93,78,63,73,68,63,100,73,46,30.00,29.94,29.85,10,8,2,12,3,15,0.00,1,,227
2013-8-31,95,82,69,74,70,66,93,71,49,29.90,29.83,29.74,10,9,1,23,6,31,1.22,3,Rain-Thunderstorm,225